Time;durP1;ratioP1;P1;durP2;ratioP2;P2;SDS_P1;SDS_P2;PMS_P1;PMS_P2;Temp;Humidity;BMP_temperature;BMP_pressure;BME280_temperature;BME280_humidity;BME280_pressure;Samples;Min_cycle;Max_cycle;Signal;HPM_P1;HPM_P2
2021/09/22 00:00:20;;;;;;;9.65;6.70;;;12.00;72.20;;;;;;5016079;28;20100;-81
2021/09/22 00:02:47;;;;;;;10.32;7.32;;;12.00;72.20;;;;;;5015945;28;20104;-81
2021/09/22 00:05:15;;;;;;;11.07;7.38;;;12.00;72.10;;;;;;5014028;28;20111;-81
2021/09/22 00:07:42;;;;;;;14.23;7.13;;;11.90;72.10;;;;;;5013302;28;20124;-81
2021/09/22 00:10:13;;;;;;;13.02;7.25;;;11.90;72.10;;;;;;5014863;28;20502;-81
2021/09/22 00:12:40;;;;;;;9.95;6.85;;;11.90;72.10;;;;;;5015776;28;20053;-81
2021/09/22 00:15:10;;;;;;;9.07;6.90;;;11.90;72.10;;;;;;5015954;28;20054;-81
2021/09/22 00:17:37;;;;;;;9.48;7.07;;;11.90;72.10;;;;;;5015740;28;20383;-81
2021/09/22 00:20:05;;;;;;;10.32;5.88;;;11.90;72.10;;;;;;5012304;28;20057;-81
2021/09/22 00:22:32;;;;;;;8.88;6.93;;;11.80;72.20;;;;;;5015074;28;20054;-81
2021/09/22 00:24:59;;;;;;;9.90;6.95;;;11.80;72.20;;;;;;5010879;28;20050;-81
2021/09/22 00:27:26;;;;;;;11.60;6.45;;;11.80;72.30;;;;;;5019964;28;20045;-81
2021/09/22 00:29:52;;;;;;;8.63;6.40;;;11.80;72.20;;;;;;5016365;28;20053;-81
2021/09/22 00:32:19;;;;;;;11.95;6.57;;;11.70;72.30;;;;;;5016578;28;20042;-81
2021/09/22 00:34:47;;;;;;;9.52;7.00;;;11.70;72.40;;;;;;5014915;28;20057;-81
2021/09/22 00:37:14;;;;;;;10.73;7.43;;;11.70;72.40;;;;;;5014952;28;20092;-81
2021/09/22 00:39:40;;;;;;;10.40;7.10;;;11.70;72.50;;;;;;5016107;28;20050;-81
2021/09/22 00:42:07;;;;;;;10.73;6.60;;;11.70;72.60;;;;;;5016273;28;20042;-81
2021/09/22 00:44:56;;;;;;;11.63;6.28;;;11.70;72.70;;;;;;5016334;28;20045;-81
2021/09/22 00:47:24;;;;;;;10.07;6.68;;;11.60;72.70;;;;;;5016154;28;20517;-81
2021/09/22 00:49:52;;;;;;;8.88;6.65;;;11.60;72.80;;;;;;5014932;28;20049;-81
2021/09/22 00:52:20;;;;;;;11.68;7.00;;;11.60;72.80;;;;;;5017848;28;20100;-81
2021/09/22 00:54:49;;;;;;;9.68;6.70;;;11.60;72.80;;;;;;5019023;28;20060;-81
2021/09/22 00:57:17;;;;;;;8.90;6.60;;;11.50;72.70;;;;;;5018820;28;20104;-81
2021/09/22 00:59:45;;;;;;;10.05;6.60;;;11.50;72.60;;;;;;5018725;28;20103;-81
2021/09/22 01:02:12;;;;;;;10.38;6.85;;;11.50;72.60;;;;;;5016814;28;20045;-81
2021/09/22 01:04:40;;;;;;;10.57;6.85;;;11.50;72.60;;;;;;5014523;28;20107;-81
2021/09/22 01:07:08;;;;;;;9.85;7.32;;;11.50;72.70;;;;;;5015242;28;20115;-80
2021/09/22 01:09:36;;;;;;;12.93;6.88;;;11.40;72.80;;;;;;5015691;28;20045;-81
2021/09/22 01:12:04;;;;;;;8.40;6.20;;;11.40;72.90;;;;;;5015650;28;20517;-81
2021/09/22 01:14:31;;;;;;;10.25;6.88;;;11.40;72.90;;;;;;5015643;28;20042;-81
2021/09/22 01:16:58;;;;;;;10.85;7.07;;;11.40;72.90;;;;;;5015832;28;20104;-81
2021/09/22 01:19:26;;;;;;;9.68;6.25;;;11.40;72.90;;;;;;5028764;28;20158;-80
2021/09/22 01:21:55;;;;;;;9.52;6.60;;;11.40;72.80;;;;;;5018525;28;20588;-81
2021/09/22 01:24:22;;;;;;;11.05;7.07;;;11.30;72.80;;;;;;5018497;28;20058;-81
2021/09/22 01:26:51;;;;;;;9.18;7.05;;;11.30;72.80;;;;;;5018363;28;20071;-81
2021/09/22 01:29:18;;;;;;;8.93;6.68;;;11.30;72.70;;;;;;5016623;28;20812;-81
2021/09/22 01:31:45;;;;;;;10.50;6.50;;;11.30;72.80;;;;;;5015422;28;20050;-80
2021/09/22 01:34:14;;;;;;;7.78;5.82;;;11.20;72.70;;;;;;5016810;28;20080;-81
2021/09/22 01:36:41;;;;;;;11.45;7.90;;;11.20;72.70;;;;;;5017856;28;20096;-80
2021/09/22 01:39:08;;;;;;;9.90;6.90;;;11.10;72.70;;;;;;5018008;28;20505;-81
2021/09/22 01:41:35;;;;;;;9.38;6.53;;;11.10;72.70;;;;;;5018192;28;20530;-80
2021/09/22 01:44:02;;;;;;;8.93;6.85;;;11.20;72.80;;;;;;5014398;28;20053;-81
2021/09/22 01:46:29;;;;;;;10.05;7.10;;;11.10;72.90;;;;;;5016361;28;20131;-81
2021/09/22 01:48:57;;;;;;;10.30;6.85;;;11.10;73.00;;;;;;5017958;28;20108;-80
2021/09/22 01:51:23;;;;;;;8.75;6.65;;;11.00;73.10;;;;;;5017544;28;20046;-80
2021/09/22 01:53:50;;;;;;;9.70;7.07;;;11.00;73.20;;;;;;5017823;28;20054;-80
2021/09/22 01:56:17;;;;;;;12.55;7.00;;;11.00;73.20;;;;;;5016162;28;20466;-80
2021/09/22 01:58:44;;;;;;;9.90;7.43;;;11.00;73.20;;;;;;5014793;28;20423;-81
2021/09/22 02:01:14;;;;;;;8.90;6.85;;;11.00;73.10;;;;;;5016762;28;20046;-80
2021/09/22 02:03:42;;;;;;;11.15;6.93;;;10.90;72.90;;;;;;5017266;28;20046;-80
2021/09/22 02:06:09;;;;;;;8.57;5.95;;;10.90;72.90;;;;;;5017587;28;20050;-80
2021/09/22 02:08:39;;;;;;;9.43;6.82;;;10.90;72.90;;;;;;5000000;28;20072;-80
2021/09/22 02:11:06;;;;;;;9.68;7.30;;;10.90;72.90;;;;;;5014181;28;20542;-81
2021/09/22 02:13:34;;;;;;;9.50;6.90;;;10.90;72.90;;;;;;5015238;28;20104;-80
2021/09/22 02:16:01;;;;;;;11.77;6.78;;;10.90;72.90;;;;;;5014244;28;20050;-80
2021/09/22 02:18:28;;;;;;;9.18;6.75;;;10.80;72.90;;;;;;5013967;28;20081;-80
2021/09/22 02:20:55;;;;;;;12.52;7.03;;;10.80;72.90;;;;;;5016916;28;20111;-80
2021/09/22 02:23:22;;;;;;;8.35;5.82;;;10.80;73.00;;;;;;5016231;28;20045;-81
2021/09/22 02:25:49;;;;;;;8.68;6.03;;;10.70;73.10;;;;;;5013829;28;20041;-80
2021/09/22 02:28:16;;;;;;;12.32;6.90;;;10.70;73.00;;;;;;5016364;28;20462;-80
2021/09/22 02:30:43;;;;;;;10.02;6.57;;;10.70;73.00;;;;;;5017256;28;20507;-80
2021/09/22 02:33:10;;;;;;;9.68;7.18;;;10.70;72.90;;;;;;5016786;28;20054;-80
2021/09/22 02:35:37;;;;;;;8.60;5.60;;;10.70;72.90;;;;;;5017137;28;20049;-80
2021/09/22 02:38:04;;;;;;;9.82;7.35;;;10.60;72.80;;;;;;5013650;28;20054;-80
2021/09/22 02:40:31;;;;;;;10.20;7.47;;;10.60;72.90;;;;;;5014977;28;20107;-80
2021/09/22 02:42:58;;;;;;;8.77;7.20;;;10.60;72.90;;;;;;5017042;28;20108;-81
2021/09/22 02:45:25;;;;;;;9.05;7.28;;;10.60;72.90;;;;;;5016106;28;20061;-81
2021/09/22 02:47:52;;;;;;;12.35;6.93;;;10.60;72.80;;;;;;5016563;28;20111;-81
2021/09/22 02:50:19;;;;;;;10.88;6.63;;;10.50;72.90;;;;;;5015432;28;20506;-80
2021/09/22 02:52:47;;;;;;;9.80;6.85;;;10.50;73.10;;;;;;5013656;28;20477;-80
2021/09/22 02:55:14;;;;;;;10.25;7.55;;;10.50;73.20;;;;;;5015851;28;20050;-80
2021/09/22 02:57:41;;;;;;;12.50;7.53;;;10.50;73.30;;;;;;5016672;28;20049;-80
2021/09/22 03:00:09;;;;;;;11.20;7.63;;;10.40;73.30;;;;;;5016789;28;20111;-81
2021/09/22 03:02:38;;;;;;;11.13;7.00;;;10.50;73.30;;;;;;5016229;28;20488;-80
2021/09/22 03:05:07;;;;;;;11.98;8.05;;;10.40;73.30;;;;;;5013254;28;20057;-80
2021/09/22 03:07:33;;;;;;;12.30;7.47;;;10.40;73.30;;;;;;4997008;28;20060;-80
2021/09/22 03:10:00;;;;;;;10.35;7.40;;;10.40;73.30;;;;;;5013274;28;20046;-80
2021/09/22 03:12:27;;;;;;;10.40;7.65;;;10.40;73.40;;;;;;5013473;28;20053;-80
2021/09/22 03:14:54;;;;;;;12.07;7.72;;;10.40;73.50;;;;;;5013564;28;20053;-80
2021/09/22 03:17:21;;;;;;;11.27;8.07;;;10.40;73.60;;;;;;5013227;28;20046;-80
2021/09/22 03:19:49;;;;;;;9.15;6.93;;;10.30;73.60;;;;;;5012025;28;20045;-80
2021/09/22 03:22:17;;;;;;;9.00;7.32;;;10.40;73.50;;;;;;5012036;28;20617;-80
2021/09/22 03:24:44;;;;;;;9.00;6.40;;;10.30;73.50;;;;;;5013396;28;20112;-80
2021/09/22 03:27:11;;;;;;;12.73;7.63;;;10.30;73.40;;;;;;5016193;28;20454;-81
2021/09/22 03:29:37;;;;;;;10.10;6.40;;;10.30;73.40;;;;;;5016442;28;20461;-80
2021/09/22 03:32:04;;;;;;;11.38;7.85;;;10.20;73.30;;;;;;5012482;28;20104;-80
2021/09/22 03:34:31;;;;;;;11.15;7.70;;;10.20;73.30;;;;;;5014407;28;20061;-80
2021/09/22 03:36:58;;;;;;;11.60;8.15;;;10.20;73.30;;;;;;5016264;28;20050;-80
2021/09/22 03:39:25;;;;;;;9.07;7.60;;;10.20;73.30;;;;;;5016141;28;20124;-80
2021/09/22 03:41:52;;;;;;;10.48;7.68;;;10.20;73.40;;;;;;5016058;28;20612;-80
2021/09/22 03:44:19;;;;;;;12.30;7.68;;;10.20;73.50;;;;;;5014731;28;20042;-80
2021/09/22 03:46:46;;;;;;;9.43;7.78;;;10.20;73.60;;;;;;5012743;28;20054;-80
2021/09/22 03:49:13;;;;;;;12.65;7.88;;;10.10;73.50;;;;;;5015164;28;20513;-80
2021/09/22 03:51:40;;;;;;;9.18;6.50;;;10.10;73.50;;;;;;5016121;28;20054;-80
2021/09/22 03:54:06;;;;;;;8.63;6.75;;;10.10;73.40;;;;;;5016087;28;20070;-80
2021/09/22 03:56:33;;;;;;;11.43;7.30;;;10.00;73.30;;;;;;5017775;28;20095;-80
2021/09/22 03:59:01;;;;;;;12.55;7.93;;;10.00;73.30;;;;;;5016186;28;20099;-80
2021/09/22 04:01:28;;;;;;;11.27;8.07;;;10.00;73.20;;;;;;5017928;28;20503;-80
2021/09/22 04:03:56;;;;;;;11.52;8.65;;;10.00;73.30;;;;;;5019901;28;20096;-80
2021/09/22 04:06:23;;;;;;;12.93;8.68;;;10.00;73.50;;;;;;5019966;28;20483;-80
2021/09/22 04:08:50;;;;;;;10.73;7.70;;;10.00;73.60;;;;;;5019855;28;20066;-81
2021/09/22 04:11:17;;;;;;;16.33;8.77;;;9.90;73.70;;;;;;5018095;28;20041;-80
2021/09/22 04:13:44;;;;;;;10.00;7.97;;;9.90;73.70;;;;;;5016862;28;20645;-80
2021/09/22 04:16:11;;;;;;;10.27;8.02;;;9.90;73.60;;;;;;5018482;28;20569;-80
2021/09/22 04:18:38;;;;;;;13.32;8.70;;;9.90;73.60;;;;;;5019799;28;20046;-80
2021/09/22 04:21:05;;;;;;;11.05;7.90;;;9.90;73.50;;;;;;5019285;28;20104;-80
2021/09/22 04:23:32;;;;;;;12.05;8.02;;;9.90;73.50;;;;;;5019488;28;20041;-80
2021/09/22 04:25:59;;;;;;;10.05;8.48;;;9.90;73.60;;;;;;5015580;28;20049;-80
2021/09/22 04:28:26;;;;;;;12.50;7.97;;;9.80;73.60;;;;;;5018265;28;20050;-80
2021/09/22 04:30:54;;;;;;;10.15;7.45;;;9.90;73.70;;;;;;5016283;28;20130;-80
2021/09/22 04:33:20;;;;;;;15.18;8.60;;;9.80;73.80;;;;;;5016432;28;20197;-80
2021/09/22 04:35:47;;;;;;;8.50;6.50;;;9.80;73.80;;;;;;5016328;28;20042;-80
2021/09/22 04:38:14;;;;;;;13.73;7.75;;;9.80;73.80;;;;;;5016343;28;20403;-80
2021/09/22 04:40:41;;;;;;;11.40;7.25;;;9.80;73.80;;;;;;5014279;28;20054;-80
2021/09/22 04:43:08;;;;;;;11.77;8.35;;;9.80;73.70;;;;;;5031500;28;20049;-81
2021/09/22 04:45:35;;;;;;;10.32;7.00;;;9.70;73.60;;;;;;5021438;28;20053;-80
2021/09/22 04:48:03;;;;;;;11.05;7.65;;;9.70;73.60;;;;;;5019027;28;20470;-80
2021/09/22 04:50:29;;;;;;;11.55;7.22;;;9.70;73.70;;;;;;5018940;28;20175;-80
2021/09/22 04:52:56;;;;;;;11.82;8.18;;;9.70;73.70;;;;;;5014982;28;20095;-80
2021/09/22 04:55:23;;;;;;;12.25;7.95;;;9.70;73.80;;;;;;5011775;28;20099;-80
2021/09/22 04:57:50;;;;;;;11.85;8.57;;;9.60;74.00;;;;;;5018470;28;20478;-80
2021/09/22 05:00:18;;;;;;;10.02;7.15;;;9.60;74.00;;;;;;5016628;28;20116;-80
2021/09/22 05:02:44;;;;;;;12.25;7.38;;;9.60;74.00;;;;;;5015829;28;20050;-80
2021/09/22 05:05:13;;;;;;;11.38;7.22;;;9.50;73.90;;;;;;5015921;28;20132;-80
2021/09/22 05:07:40;;;;;;;13.00;8.10;;;9.50;73.80;;;;;;5012903;28;20498;-80
2021/09/22 05:10:08;;;;;;;11.10;8.73;;;9.50;73.80;;;;;;5017836;28;20046;-80
2021/09/22 05:12:35;;;;;;;12.55;8.05;;;9.50;73.80;;;;;;5018369;28;20045;-80
2021/09/22 05:15:03;;;;;;;14.05;8.82;;;9.40;73.90;;;;;;5018643;28;20069;-80
2021/09/22 05:17:30;;;;;;;12.70;8.73;;;9.40;74.00;;;;;;5018541;28;20524;-81
2021/09/22 05:19:57;;;;;;;11.38;7.18;;;9.40;74.10;;;;;;5014171;28;20042;-80
2021/09/22 05:22:24;;;;;;;12.57;8.18;;;9.40;74.10;;;;;;5028939;28;20104;-80
2021/09/22 05:24:51;;;;;;;11.65;7.35;;;9.40;74.00;;;;;;5018568;28;20081;-80
2021/09/22 05:27:17;;;;;;;10.32;7.13;;;9.40;74.00;;;;;;5017972;28;20404;-80
2021/09/22 05:29:44;;;;;;;13.20;9.35;;;9.40;74.00;;;;;;5018174;28;20048;-80
2021/09/22 05:32:12;;;;;;;11.82;8.48;;;9.30;74.10;;;;;;5015919;28;20568;-80
2021/09/22 05:34:40;;;;;;;12.70;9.63;;;9.40;74.20;;;;;;5016098;28;20103;-80
2021/09/22 05:37:06;;;;;;;12.52;9.57;;;9.30;74.30;;;;;;5017241;28;20458;-81
2021/09/22 05:39:33;;;;;;;13.07;8.82;;;9.30;74.40;;;;;;5018172;28;20061;-81
2021/09/22 05:42:00;;;;;;;13.48;8.70;;;9.30;74.40;;;;;;5017707;28;20045;-81
2021/09/22 05:44:27;;;;;;;15.07;8.70;;;9.30;74.50;;;;;;5017864;28;20042;-81
2021/09/22 05:46:54;;;;;;;10.70;8.52;;;9.30;74.50;;;;;;5013798;28;20098;-80
2021/09/22 05:49:21;;;;;;;10.88;7.60;;;9.30;74.40;;;;;;5017033;28;20052;-81
2021/09/22 05:51:48;;;;;;;10.32;8.25;;;9.30;74.30;;;;;;5017975;28;20173;-81
2021/09/22 05:54:16;;;;;;;12.68;8.30;;;9.20;74.20;;;;;;5017901;28;20046;-81
2021/09/22 05:56:45;;;;;;;15.07;8.30;;;9.20;74.10;;;;;;5017466;28;20045;-81
2021/09/22 05:59:12;;;;;;;14.27;9.75;;;9.20;74.00;;;;;;5015292;28;20317;-81
2021/09/22 06:01:38;;;;;;;14.95;7.88;;;9.20;74.10;;;;;;5015142;28;20457;-81
2021/09/22 06:04:10;;;;;;;16.33;9.98;;;9.10;74.10;;;;;;5016827;28;20506;-81
2021/09/22 06:06:38;;;;;;;13.88;10.05;;;9.20;74.20;;;;;;5017532;28;20506;-81
2021/09/22 06:09:05;;;;;;;13.38;9.35;;;9.20;74.20;;;;;;5019924;28;20053;-81
2021/09/22 06:11:32;;;;;;;11.52;8.50;;;9.10;74.40;;;;;;5017484;28;20048;-81
2021/09/22 06:13:59;;;;;;;12.07;9.55;;;9.10;74.50;;;;;;5015004;28;20133;-81
2021/09/22 06:16:27;;;;;;;12.98;8.82;;;9.10;74.50;;;;;;5013548;28;20580;-80
2021/09/22 06:18:54;;;;;;;12.23;9.43;;;9.10;74.50;;;;;;5015612;28;20050;-81
2021/09/22 06:21:21;;;;;;;14.27;9.73;;;9.10;74.50;;;;;;4997773;28;20054;-81
2021/09/22 06:23:53;;;;;;;14.32;9.27;;;9.10;74.60;;;;;;5015382;28;20553;-81
2021/09/22 06:26:24;;;;;;;15.10;10.98;;;9.10;74.70;;;;;;5014109;28;20049;-81
2021/09/22 06:28:52;;;;;;;17.48;10.27;;;9.10;74.90;;;;;;5030335;28;20050;-81
2021/09/22 06:31:19;;;;;;;13.40;9.70;;;9.10;75.10;;;;;;5013688;28;20169;-81
2021/09/22 06:33:46;;;;;;;13.20;9.05;;;9.10;75.20;;;;;;5015292;28;20058;-81
2021/09/22 06:36:13;;;;;;;14.60;9.32;;;9.10;75.40;;;;;;5014735;28;20107;-81
2021/09/22 06:38:40;;;;;;;12.27;8.93;;;9.10;75.50;;;;;;5014992;28;20096;-81
2021/09/22 06:41:07;;;;;;;11.65;9.52;;;9.10;75.50;;;;;;5014757;28;20560;-81
2021/09/22 06:43:34;;;;;;;13.27;9.68;;;9.10;75.50;;;;;;5015504;28;20108;-81
2021/09/22 06:46:01;;;;;;;15.90;11.00;;;9.10;75.70;;;;;;5017361;28;20054;-81
2021/09/22 06:48:28;;;;;;;14.05;10.85;;;9.10;75.90;;;;;;5017998;28;20116;-81
2021/09/22 06:50:55;;;;;;;14.52;10.95;;;9.10;76.10;;;;;;5017891;28;20041;-81
2021/09/22 06:53:22;;;;;;;17.77;11.35;;;9.10;76.20;;;;;;5017403;28;20083;-81
2021/09/22 06:55:50;;;;;;;19.17;12.07;;;9.10;76.30;;;;;;5014002;28;20053;-81
2021/09/22 06:58:17;;;;;;;17.83;12.05;;;9.20;76.40;;;;;;5031302;28;20079;-81
2021/09/22 07:00:44;;;;;;;15.82;12.18;;;9.20;76.60;;;;;;5016085;28;20049;-81
2021/09/22 07:03:11;;;;;;;19.60;13.35;;;9.20;76.60;;;;;;5019944;28;20677;-81
2021/09/22 07:05:40;;;;;;;20.80;14.00;;;9.20;76.80;;;;;;5024722;28;20045;-81
2021/09/22 07:08:11;;;;;;;19.17;13.88;;;9.20;77.10;;;;;;5014613;28;20124;-80
2021/09/22 07:10:38;;;;;;;16.80;12.02;;;9.30;77.30;;;;;;5012601;28;20046;-81
2021/09/22 07:13:06;;;;;;;16.45;13.05;;;9.30;77.60;;;;;;5014303;28;20096;-81
2021/09/22 07:15:33;;;;;;;19.08;12.60;;;9.40;77.70;;;;;;5014582;28;20049;-81
2021/09/22 07:18:16;;;;;;;24.05;16.08;;;9.40;77.90;;;;;;5014685;28;20573;-81
2021/09/22 07:20:43;;;;;;;18.77;12.77;;;9.40;78.00;;;;;;5017052;28;20076;-80
2021/09/22 07:23:10;;;;;;;22.13;14.95;;;9.50;78.30;;;;;;5014397;28;20049;-81
2021/09/22 07:25:36;;;;;;;19.30;13.13;;;9.50;78.40;;;;;;5015041;28;20057;-81
2021/09/22 07:28:03;;;;;;;28.25;18.63;;;9.60;78.60;;;;;;5016549;28;20049;-81
2021/09/22 07:30:32;;;;;;;30.20;19.67;;;9.60;78.70;;;;;;5016711;28;20046;-81
2021/09/22 07:33:00;;;;;;;18.60;14.95;;;9.70;79.00;;;;;;4997349;28;20057;-81
2021/09/22 07:35:27;;;;;;;22.02;15.27;;;9.70;79.30;;;;;;5014070;28;20046;-80
2021/09/22 07:37:55;;;;;;;25.73;17.42;;;9.80;79.20;;;;;;5013613;28;20585;-81
2021/09/22 07:40:22;;;;;;;22.55;14.77;;;9.90;79.30;;;;;;5016362;28;20041;-81
2021/09/22 07:42:50;;;;;;;28.42;18.30;;;9.90;79.30;;;;;;5024221;28;20521;-81
2021/09/22 07:45:17;;;;;;;33.05;23.23;;;9.90;79.20;;;;;;5029153;28;20100;-81
2021/09/22 07:47:43;;;;;;;22.45;14.15;;;10.10;79.30;;;;;;5027542;28;20115;-83
2021/09/22 07:50:12;;;;;;;26.30;20.13;;;10.20;79.30;;;;;;5027210;28;20904;-80
2021/09/22 07:52:39;;;;;;;41.50;23.35;;;10.20;79.30;;;;;;5029638;28;20403;-81
2021/09/22 07:55:08;;;;;;;41.63;25.83;;;10.30;79.40;;;;;;5029218;28;20053;-80
2021/09/22 07:57:36;;;;;;;40.08;25.63;;;10.40;79.60;;;;;;5026540;28;20053;-80
2021/09/22 08:00:05;;;;;;;37.28;23.08;;;10.40;79.60;;;;;;5027197;28;20095;-81
2021/09/22 08:02:32;;;;;;;35.20;25.98;;;10.50;79.70;;;;;;5025419;28;20061;-81
2021/09/22 08:04:59;;;;;;;37.17;25.30;;;10.60;79.70;;;;;;5027168;28;20466;-81
2021/09/22 08:07:40;;;;;;;30.73;21.67;;;10.70;79.60;;;;;;5029515;28;20049;-81
2021/09/22 08:10:08;;;;;;;30.73;20.77;;;10.90;79.70;;;;;;5031515;28;20041;-82
2021/09/22 08:12:35;;;;;;;36.15;23.60;;;10.90;79.70;;;;;;5026815;28;20046;-83
2021/09/22 08:15:02;;;;;;;46.28;24.48;;;11.10;79.70;;;;;;5027238;28;20100;-82
2021/09/22 08:17:29;;;;;;;38.53;23.25;;;11.20;79.70;;;;;;5027303;28;20072;-83
2021/09/22 08:19:57;;;;;;;33.40;22.50;;;11.40;79.80;;;;;;5011704;28;20053;-82
2021/09/22 08:22:24;;;;;;;39.38;22.88;;;11.40;79.80;;;;;;5026814;28;20057;-82
2021/09/22 08:24:51;;;;;;;32.03;20.98;;;11.60;79.60;;;;;;5026829;28;20453;-81
2021/09/22 08:27:18;;;;;;;27.73;20.55;;;11.70;79.40;;;;;;5025727;28;20049;-81
2021/09/22 08:29:45;;;;;;;22.67;16.35;;;11.70;79.10;;;;;;5025716;28;20391;-81
2021/09/22 08:32:13;;;;;;;32.72;19.88;;;11.90;79.00;;;;;;5025876;28;20495;-81
2021/09/22 08:34:39;;;;;;;32.50;20.42;;;11.90;78.80;;;;;;5028217;28;20103;-81
2021/09/22 08:37:06;;;;;;;30.35;21.42;;;12.00;78.80;;;;;;5027226;28;20050;-80
2021/09/22 08:39:34;;;;;;;33.80;20.67;;;12.20;78.80;;;;;;5025456;28;20060;-80
2021/09/22 08:42:02;;;;;;;29.05;20.45;;;12.20;78.60;;;;;;5025387;28;20045;-81
2021/09/22 08:44:29;;;;;;;30.52;19.15;;;12.40;78.40;;;;;;5028746;28;20632;-81
2021/09/22 08:46:58;;;;;;;22.48;16.52;;;12.40;78.40;;;;;;5014081;28;20095;-80
2021/09/22 08:49:25;;;;;;;23.83;16.60;;;12.50;78.30;;;;;;5029402;28;20099;-81
2021/09/22 08:51:52;;;;;;;32.45;21.05;;;12.70;78.20;;;;;;5030622;28;20123;-81
2021/09/22 08:54:20;;;;;;;28.63;17.20;;;12.70;78.20;;;;;;5029001;28;20460;-83
2021/09/22 08:56:47;;;;;;;30.05;19.85;;;12.90;78.00;;;;;;5029098;28;20053;-80
2021/09/22 08:59:16;;;;;;;27.50;17.70;;;12.90;77.80;;;;;;5030852;28;20046;-80
2021/09/22 09:02:12;;;;;;;34.55;19.63;;;13.10;77.50;;;;;;5031226;28;20045;-81
2021/09/22 09:04:42;;;;;;;25.33;17.02;;;13.20;77.20;;;;;;5029159;28;20045;-80
2021/09/22 09:07:10;;;;;;;28.33;18.73;;;13.30;77.00;;;;;;5031431;28;20049;-80
2021/09/22 09:09:39;;;;;;;29.10;19.52;;;13.40;76.70;;;;;;5028828;28;20045;-81
2021/09/22 09:12:22;;;;;;;34.22;17.05;;;13.50;76.70;;;;;;5028838;28;20061;-80
2021/09/22 09:14:56;;;;;;;20.88;16.48;;;13.60;76.60;;;;;;5028800;28;20538;-81
2021/09/22 09:17:38;;;;;;;25.80;14.85;;;13.70;76.20;;;;;;5028784;28;20045;-82
2021/09/22 09:20:32;;;;;;;22.17;15.07;;;13.90;75.90;;;;;;5013859;28;20077;-81
2021/09/22 09:23:07;;;;;;;21.95;15.30;;;13.90;75.70;;;;;;5010848;28;20081;-81
2021/09/22 09:25:44;;;;;;;28.77;17.27;;;14.10;75.50;;;;;;5013820;28;20045;-82
2021/09/22 09:28:24;;;;;;;24.05;17.42;;;14.20;75.40;;;;;;5031349;28;20056;-82
2021/09/22 09:30:55;;;;;;;26.35;16.48;;;14.30;75.00;;;;;;5028511;28;20053;-82
2021/09/22 09:33:31;;;;;;;19.73;13.73;;;14.40;74.70;;;;;;5027984;28;20057;-81
2021/09/22 09:36:00;;;;;;;20.50;15.65;;;14.50;74.40;;;;;;5028326;28;20041;-82
2021/09/22 09:38:31;;;;;;;23.48;14.73;;;14.70;74.30;;;;;;5030268;28;20081;-82
2021/09/22 09:40:58;;;;;;;21.17;14.63;;;14.80;74.30;;;;;;5012809;28;20505;-82
2021/09/22 09:43:25;;;;;;;22.52;14.15;;;14.90;74.00;;;;;;5032656;28;20054;-82
2021/09/22 09:45:52;;;;;;;21.58;13.10;;;15.10;73.80;;;;;;5029634;28;20049;-83
2021/09/22 09:48:20;;;;;;;24.40;15.15;;;15.30;73.50;;;;;;5027792;28;20122;-82
2021/09/22 09:50:59;;;;;;;20.50;14.15;;;15.40;73.20;;;;;;5028155;28;20069;-83
2021/09/22 09:53:31;;;;;;;19.00;13.23;;;15.50;73.00;;;;;;5027610;28;20056;-82
2021/09/22 09:56:00;;;;;;;20.63;14.02;;;15.70;72.60;;;;;;5012715;28;20049;-82
2021/09/22 09:58:48;;;;;;;21.75;13.88;;;15.90;72.20;;;;;;5031901;28;20115;-82
2021/09/22 10:01:18;;;;;;;17.25;13.43;;;16.00;72.10;;;;;;5031065;28;20111;-83
2021/09/22 10:03:46;;;;;;;19.15;11.98;;;16.20;71.80;;;;;;5027562;28;20053;-82
2021/09/22 10:06:14;;;;;;;17.63;12.30;;;16.40;71.20;;;;;;5027795;28;20061;-82
2021/09/22 10:08:41;;;;;;;17.08;12.52;;;16.50;70.50;;;;;;5027753;28;20041;-81
2021/09/22 10:11:08;;;;;;;21.15;12.80;;;16.70;70.00;;;;;;5010214;28;20403;-81
2021/09/22 10:13:37;;;;;;;19.10;10.95;;;16.90;69.70;;;;;;5030216;28;20045;-81
2021/09/22 10:16:05;;;;;;;16.83;11.77;;;16.90;68.80;;;;;;5029554;28;20100;-82
2021/09/22 10:18:34;;;;;;;18.67;10.88;;;17.10;68.00;;;;;;5029095;28;20574;-81
2021/09/22 10:21:02;;;;;;;17.70;10.98;;;17.20;67.50;;;;;;5027401;28;20088;-82
2021/09/22 10:23:29;;;;;;;18.95;10.88;;;17.30;66.70;;;;;;5027218;28;20053;-82
2021/09/22 10:25:56;;;;;;;17.02;10.45;;;17.40;66.30;;;;;;5012186;28;20571;-81
2021/09/22 10:28:42;;;;;;;14.00;9.27;;;17.40;65.90;;;;;;5031443;28;20052;-81
2021/09/22 10:31:15;;;;;;;18.27;9.98;;;17.50;65.40;;;;;;5029490;28;20050;-81
2021/09/22 10:33:46;;;;;;;14.10;9.38;;;17.60;65.40;;;;;;5027413;28;20494;-82
2021/09/22 10:36:15;;;;;;;12.82;9.00;;;17.80;65.30;;;;;;5027338;28;20061;-82
2021/09/22 10:38:45;;;;;;;15.90;9.50;;;17.90;65.00;;;;;;5027097;28;20041;-82
2021/09/22 10:41:27;;;;;;;13.45;9.65;;;18.00;64.50;;;;;;5027374;28;20506;-82
2021/09/22 10:43:54;;;;;;;11.27;8.95;;;18.20;64.10;;;;;;5027479;28;20466;-81
2021/09/22 10:46:22;;;;;;;12.40;8.27;;;18.30;63.30;;;;;;5030696;28;20054;-82
2021/09/22 10:48:54;;;;;;;16.33;7.80;;;18.40;62.60;;;;;;5027016;28;20061;-81
2021/09/22 10:51:32;;;;;;;11.77;8.57;;;18.40;62.20;;;;;;5026650;28;20049;-81
2021/09/22 10:54:06;;;;;;;15.32;9.02;;;18.50;62.10;;;;;;5026955;28;20077;-81
2021/09/22 10:56:33;;;;;;;13.18;8.30;;;18.60;62.20;;;;;;5028679;28;20053;-82
2021/09/22 10:59:06;;;;;;;12.80;7.20;;;18.60;61.80;;;;;;5026994;28;20175;-81
2021/09/22 11:01:32;;;;;;;11.80;7.57;;;18.60;61.10;;;;;;5029559;28;20106;-81
2021/09/22 11:04:05;;;;;;;15.93;9.60;;;18.60;60.80;;;;;;5029843;28;20450;-82
2021/09/22 11:06:44;;;;;;;11.10;8.30;;;18.70;60.80;;;;;;5026091;28;20048;-82
2021/09/22 11:09:17;;;;;;;16.83;7.63;;;18.70;60.80;;;;;;5026964;28;20072;-81
2021/09/22 11:11:53;;;;;;;18.05;8.38;;;18.80;60.90;;;;;;5026670;28;20045;-82
2021/09/22 11:14:44;;;;;;;16.52;8.50;;;18.90;60.80;;;;;;5026822;28;20049;-82
2021/09/22 11:17:15;;;;;;;14.50;7.28;;;19.00;60.40;;;;;;5012922;28;20096;-82
2021/09/22 11:19:46;;;;;;;13.35;7.30;;;19.20;60.10;;;;;;5028974;28;20056;-82
2021/09/22 11:22:15;;;;;;;14.63;8.32;;;19.30;59.80;;;;;;5029325;28;20049;-82
2021/09/22 11:24:44;;;;;;;19.35;8.88;;;19.40;59.70;;;;;;5026490;28;20434;-82
2021/09/22 11:27:16;;;;;;;17.77;8.20;;;19.60;59.50;;;;;;5026378;28;20045;-82
2021/09/22 11:29:50;;;;;;;11.73;6.35;;;19.70;59.20;;;;;;5026157;28;20103;-82
2021/09/22 11:32:26;;;;;;;14.40;6.83;;;19.80;58.40;;;;;;5026651;28;20042;-82
2021/09/22 11:34:56;;;;;;;14.38;6.13;;;19.90;57.90;;;;;;5027397;28;20465;-82
2021/09/22 11:37:29;;;;;;;10.18;6.90;;;20.00;57.90;;;;;;5030453;28;20045;-82
2021/09/22 11:40:04;;;;;;;11.38;6.55;;;20.00;57.50;;;;;;5026367;28;20053;-82
2021/09/22 11:42:31;;;;;;;14.38;7.00;;;20.10;57.00;;;;;;5026201;28;20523;-82
2021/09/22 11:44:58;;;;;;;8.48;6.35;;;20.20;56.50;;;;;;5025922;28;20465;-82
2021/09/22 11:47:25;;;;;;;8.10;6.07;;;20.30;55.90;;;;;;5026711;28;20099;-82
2021/09/22 11:49:52;;;;;;;15.80;6.75;;;20.30;55.60;;;;;;5027333;28;20050;-81
2021/09/22 11:52:21;;;;;;;12.85;5.70;;;20.30;55.40;;;;;;5029613;28;20049;-81
2021/09/22 11:54:56;;;;;;;8.63;5.20;;;20.40;55.50;;;;;;5026260;28;20533;-82
2021/09/22 11:57:28;;;;;;;8.88;5.63;;;20.40;55.50;;;;;;5027410;28;20104;-82
2021/09/22 11:59:56;;;;;;;11.57;6.35;;;20.50;55.60;;;;;;5025826;28;20049;-83
2021/09/22 12:02:28;;;;;;;12.10;6.93;;;20.60;55.70;;;;;;5026235;28;20538;-82
2021/09/22 12:04:58;;;;;;;11.18;6.60;;;20.70;55.40;;;;;;5026764;28;20087;-82
2021/09/22 12:07:30;;;;;;;10.68;6.45;;;20.80;55.00;;;;;;5026236;28;20096;-82
2021/09/22 12:10:02;;;;;;;9.35;5.53;;;20.90;54.40;;;;;;5009622;28;20049;-81
2021/09/22 12:12:33;;;;;;;8.65;6.00;;;20.90;54.30;;;;;;5025957;28;20084;-82
2021/09/22 12:15:00;;;;;;;10.05;6.72;;;21.10;54.40;;;;;;5009745;28;20055;-82
2021/09/22 12:17:36;;;;;;;10.77;5.78;;;21.20;54.40;;;;;;5027498;28;20136;-83
2021/09/22 12:20:06;;;;;;;10.15;5.50;;;21.30;54.10;;;;;;5014870;28;20138;-82
2021/09/22 12:22:36;;;;;;;7.88;5.82;;;21.40;53.60;;;;;;5032462;28;20513;-82
2021/09/22 12:25:05;;;;;;;8.40;4.93;;;21.40;53.00;;;;;;5033298;28;20050;-82
2021/09/22 12:27:33;;;;;;;10.05;5.57;;;21.50;53.20;;;;;;5029671;28;20559;-82
2021/09/22 12:30:07;;;;;;;7.68;4.78;;;21.50;53.30;;;;;;5029577;28;20133;-82
2021/09/22 12:32:53;;;;;;;11.43;5.97;;;21.60;53.10;;;;;;5029617;28;20099;-83
2021/09/22 12:35:26;;;;;;;9.27;5.88;;;21.70;52.90;;;;;;5031196;28;20052;-84
2021/09/22 12:37:55;;;;;;;7.40;4.83;;;21.80;52.80;;;;;;5014358;28;20050;-82
2021/09/22 12:40:30;;;;;;;8.65;4.55;;;21.80;52.30;;;;;;5033520;28;20053;-82
2021/09/22 12:43:00;;;;;;;6.60;4.05;;;21.90;51.80;;;;;;5030439;28;20049;-83
2021/09/22 12:45:35;;;;;;;9.00;3.67;;;22.00;51.80;;;;;;5029388;28;20456;-83